Time;durP1;ratioP1;P1;durP2;ratioP2;P2;SDS_P1;SDS_P2;PMS_P1;PMS_P2;Temp;Humidity;BMP_temperature;BMP_pressure;BME280_temperature;BME280_humidity;BME280_pressure;Samples;Min_cycle;Max_cycle;Signal;HPM_P1;HPM_P2
2022/09/13 00:01:42;;;;;;;;;4.00;3.67;;;;;;;;5064393;28;45789;-70
2022/09/13 00:04:08;;;;;;;;;9.67;5.67;;;;;;;;5072393;28;45490;-71
2022/09/13 00:06:33;;;;;;;;;5.00;5.00;;;;;;;;5075424;28;45348;-71
2022/09/13 00:09:00;;;;;;;;;6.00;5.00;;;;;;;;5064916;27;45861;-69
2022/09/13 00:11:26;;;;;;;;;7.00;6.33;;;;;;;;5060402;28;46672;-70
2022/09/13 00:13:52;;;;;;;;;5.00;5.00;;;;;;;;5067893;28;45228;-71
2022/09/13 00:16:18;;;;;;;;;4.00;4.00;;;;;;;;5050272;28;45610;-70
2022/09/13 00:18:44;;;;;;;;;5.00;5.00;;;;;;;;5070900;27;45453;-71
2022/09/13 00:21:11;;;;;;;;;3.67;3.67;;;;;;;;5065141;28;45597;-70
2022/09/13 00:23:36;;;;;;;;;4.33;4.33;;;;;;;;5060702;28;45521;-71
2022/09/13 00:26:06;;;;;;;;;3.00;3.00;;;;;;;;5065241;28;45591;-69
2022/09/13 00:28:32;;;;;;;;;4.00;4.00;;;;;;;;5052422;28;47023;-70
2022/09/13 00:31:01;;;;;;;;;6.25;6.00;;;;;;;;5053065;28;48297;-70
2022/09/13 00:33:26;;;;;;;;;3.33;3.33;;;;;;;;5055862;28;45868;-70
2022/09/13 00:35:51;;;;;;;;;4.25;3.00;;;;;;;;5064953;28;45462;-69
2022/09/13 00:38:17;;;;;;;;;4.33;3.33;;;;;;;;5070957;28;45724;-71
2022/09/13 00:40:43;;;;;;;;;4.00;4.00;;;;;;;;5074527;27;45626;-71
2022/09/13 00:43:15;;;;;;;;;3.75;2.00;;;;;;;;5039359;28;45342;-71
2022/09/13 00:45:40;;;;;;;;;3.67;3.00;;;;;;;;5056853;28;45709;-70
2022/09/13 00:48:07;;;;;;;;;4.67;4.00;;;;;;;;5072590;28;45684;-73
2022/09/13 00:50:38;;;;;;;;;7.00;6.33;;;;;;;;5066973;28;45690;-72
2022/09/13 00:53:07;;;;;;;;;6.33;4.00;;;;;;;;5054131;28;45942;-71
2022/09/13 00:55:35;;;;;;;;;6.67;6.33;;;;;;;;5065372;28;45459;-72
2022/09/13 00:58:04;;;;;;;;;4.33;3.33;;;;;;;;5074825;28;45648;-71
2022/09/13 01:00:29;;;;;;;;;6.67;6.67;;;;;;;;5075533;28;45434;-71
2022/09/13 01:02:57;;;;;;;;;6.00;6.00;;;;;;;;5074394;27;45360;-69
2022/09/13 01:05:26;;;;;;;;;3.33;3.33;;;;;;;;5073991;28;45399;-71
2022/09/13 01:07:52;;;;;;;;;4.00;4.00;;;;;;;;5073248;27;45823;-71
2022/09/13 01:10:17;;;;;;;;;5.67;4.00;;;;;;;;5072584;28;45478;-71
2022/09/13 01:12:52;;;;;;;;;5.00;5.00;;;;;;;;5071494;28;45856;-70
2022/09/13 01:15:17;;;;;;;;;5.67;5.00;;;;;;;;5061327;28;45304;-70
2022/09/13 01:17:43;;;;;;;;;6.33;5.00;;;;;;;;5070080;28;45755;-72
2022/09/13 01:20:09;;;;;;;;;7.00;6.00;;;;;;;;5065707;27;47155;-71
2022/09/13 01:22:41;;;;;;;;;3.75;3.75;;;;;;;;5072584;27;45823;-71
2022/09/13 01:25:09;;;;;;;;;4.00;4.00;;;;;;;;5064908;28;45461;-73
2022/09/13 01:27:38;;;;;;;;;5.00;3.33;;;;;;;;5042357;28;45750;-74
2022/09/13 01:30:11;;;;;;;;;4.75;3.75;;;;;;;;5059844;28;46428;-74
2022/09/13 01:33:02;;;;;;;;;5.00;4.00;;;;;;;;5060127;28;45792;-73
2022/09/13 01:35:46;;;;;;;;;4.75;4.25;;;;;;;;5007595;28;45496;-73
2022/09/13 01:38:30;;;;;;;;;7.33;6.33;;;;;;;;5015252;28;47125;-74
2022/09/13 01:40:59;;;;;;;;;2.50;2.50;;;;;;;;5030717;28;48088;-72
2022/09/13 01:43:25;;;;;;;;;3.50;3.50;;;;;;;;5031751;28;45520;-73
2022/09/13 01:45:56;;;;;;;;;3.33;3.33;;;;;;;;5046420;28;45393;-74
2022/09/13 01:48:33;;;;;;;;;2.50;2.50;;;;;;;;5033842;28;45356;-73
2022/09/13 01:51:17;;;;;;;;;4.00;2.00;;;;;;;;5048500;28;47170;-74
2022/09/13 01:53:45;;;;;;;;;3.67;3.00;;;;;;;;5057339;28;45356;-73
2022/09/13 01:56:16;;;;;;;;;3.00;2.00;;;;;;;;5044727;28;45311;-72
2022/09/13 01:58:48;;;;;;;;;6.67;5.00;;;;;;;;5050708;28;45678;-74
2022/09/13 02:01:32;;;;;;;;;3.00;3.00;;;;;;;;5036442;28;46700;-74
2022/09/13 02:04:03;;;;;;;;;6.00;5.00;;;;;;;;5046666;28;45535;-74
2022/09/13 02:06:34;;;;;;;;;3.00;3.00;;;;;;;;5057773;28;45729;-73
2022/09/13 02:09:01;;;;;;;;;3.00;3.00;;;;;;;;5037924;28;45414;-74
2022/09/13 02:11:27;;;;;;;;;2.00;2.00;;;;;;;;5042998;28;45798;-72
2022/09/13 02:13:52;;;;;;;;;3.00;3.00;;;;;;;;5036291;28;45650;-73
2022/09/13 02:16:27;;;;;;;;;3.33;3.00;;;;;;;;5052847;28;45692;-74
2022/09/13 02:18:56;;;;;;;;;4.00;3.67;;;;;;;;5038256;28;45533;-74
2022/09/13 02:21:30;;;;;;;;;4.00;4.00;;;;;;;;5055793;28;46284;-72
2022/09/13 02:23:59;;;;;;;;;2.00;2.00;;;;;;;;5055711;28;45781;-73
2022/09/13 02:26:27;;;;;;;;;4.00;3.00;;;;;;;;5051992;28;45401;-73
2022/09/13 02:28:53;;;;;;;;;3.33;3.33;;;;;;;;5049113;28;45457;-75
2022/09/13 02:31:25;;;;;;;;;6.00;4.67;;;;;;;;5050011;28;46271;-75
2022/09/13 02:33:52;;;;;;;;;13.33;11.67;;;;;;;;5051289;28;45533;-75
2022/09/13 02:36:30;;;;;;;;;7.33;6.00;;;;;;;;5026079;28;45839;-73
2022/09/13 02:39:02;;;;;;;;;17.00;14.33;;;;;;;;5047228;28;45756;-72
2022/09/13 02:41:38;;;;;;;;;10.00;10.00;;;;;;;;5048515;28;45754;-74
2022/09/13 02:44:12;;;;;;;;;16.00;14.33;;;;;;;;5055146;28;45675;-73
2022/09/13 02:46:56;;;;;;;;;14.67;14.67;;;;;;;;5055646;28;45559;-74
2022/09/13 02:49:33;;;;;;;;;7.67;7.67;;;;;;;;5047960;28;45943;-73
2022/09/13 02:52:17;;;;;;;;;12.67;10.00;;;;;;;;5049756;28;46233;-73
2022/09/13 02:54:50;;;;;;;;;6.67;6.67;;;;;;;;5055933;28;45448;-73
2022/09/13 02:57:28;;;;;;;;;5.00;3.67;;;;;;;;5053502;28;45326;-72
2022/09/13 02:59:53;;;;;;;;;2.00;1.33;;;;;;;;5055498;28;45388;-73
2022/09/13 03:02:21;;;;;;;;;4.00;3.00;;;;;;;;5054150;28;46079;-73
2022/09/13 03:04:49;;;;;;;;;5.00;2.33;;;;;;;;5050503;28;45456;-74
2022/09/13 03:07:14;;;;;;;;;3.33;3.33;;;;;;;;5035399;28;45255;-74
2022/09/13 03:09:45;;;;;;;;;3.75;2.25;;;;;;;;5036676;28;45881;-73
2022/09/13 03:12:21;;;;;;;;;4.33;2.67;;;;;;;;5052784;28;45876;-75
2022/09/13 03:15:05;;;;;;;;;3.00;3.00;;;;;;;;5039421;28;45573;-74
2022/09/13 03:17:49;;;;;;;;;5.00;4.00;;;;;;;;5032171;28;45853;-73
2022/09/13 03:20:33;;;;;;;;;5.00;5.00;;;;;;;;5052244;28;46170;-74
2022/09/13 03:23:12;;;;;;;;;5.00;5.00;;;;;;;;5054953;28;45776;-73
2022/09/13 03:25:52;;;;;;;;;3.50;2.00;;;;;;;;5053562;28;45430;-75
2022/09/13 03:28:36;;;;;;;;;2.00;2.00;;;;;;;;5053566;28;45350;-75
2022/09/13 03:31:22;;;;;;;;;2.67;2.67;;;;;;;;5033063;28;45396;-74
2022/09/13 03:33:54;;;;;;;;;3.00;3.00;;;;;;;;5058019;28;45710;-74
2022/09/13 03:36:23;;;;;;;;;3.33;3.33;;;;;;;;5044394;28;45225;-75
2022/09/13 03:39:00;;;;;;;;;3.67;3.67;;;;;;;;5054602;28;45535;-75
2022/09/13 03:41:30;;;;;;;;;6.33;3.00;;;;;;;;5037774;28;45829;-74
2022/09/13 03:43:58;;;;;;;;;4.00;3.00;;;;;;;;5057582;28;45544;-74
2022/09/13 03:46:32;;;;;;;;;6.00;3.00;;;;;;;;5055648;28;45340;-75
2022/09/13 03:49:02;;;;;;;;;4.00;4.00;;;;;;;;5057469;28;45553;-75
2022/09/13 03:51:27;;;;;;;;;7.67;5.00;;;;;;;;5044252;28;45696;-73
2022/09/13 03:53:57;;;;;;;;;7.33;4.00;;;;;;;;5048438;28;46004;-74
2022/09/13 03:56:23;;;;;;;;;4.00;3.00;;;;;;;;5052402;28;45540;-73
2022/09/13 03:58:48;;;;;;;;;6.00;3.25;;;;;;;;5055849;28;45438;-75
2022/09/13 04:01:17;;;;;;;;;4.33;3.00;;;;;;;;5054088;28;45509;-75
2022/09/13 04:03:42;;;;;;;;;6.00;4.00;;;;;;;;5040978;28;45979;-75
2022/09/13 04:06:08;;;;;;;;;3.00;3.00;;;;;;;;5044217;28;45712;-73
2022/09/13 04:08:33;;;;;;;;;3.67;3.67;;;;;;;;5054533;28;45661;-73
2022/09/13 04:10:59;;;;;;;;;6.67;4.67;;;;;;;;5033386;28;45793;-72
2022/09/13 04:13:25;;;;;;;;;8.33;5.00;;;;;;;;5054005;28;45680;-73
2022/09/13 04:15:51;;;;;;;;;6.00;4.67;;;;;;;;5052570;28;45804;-72
2022/09/13 04:18:16;;;;;;;;;5.50;4.00;;;;;;;;5054158;28;45381;-72
2022/09/13 04:20:42;;;;;;;;;5.00;5.00;;;;;;;;5055050;28;45300;-71
2022/09/13 04:23:07;;;;;;;;;5.00;3.67;;;;;;;;5034791;28;47026;-73
2022/09/13 04:25:32;;;;;;;;;6.67;5.00;;;;;;;;5052906;28;45344;-73
2022/09/13 04:28:01;;;;;;;;;6.67;4.33;;;;;;;;5056230;28;45682;-74
2022/09/13 04:30:27;;;;;;;;;5.33;5.33;;;;;;;;5053025;28;45799;-74
2022/09/13 04:32:53;;;;;;;;;3.67;3.67;;;;;;;;5053024;28;45963;-74
2022/09/13 04:35:18;;;;;;;;;6.33;3.00;;;;;;;;5055421;28;45299;-73
2022/09/13 04:37:44;;;;;;;;;8.33;5.00;;;;;;;;5056564;28;45486;-73
2022/09/13 04:40:10;;;;;;;;;5.00;4.00;;;;;;;;5051278;28;46417;-73
2022/09/13 04:42:35;;;;;;;;;5.00;5.00;;;;;;;;5043282;28;45755;-72
2022/09/13 04:45:01;;;;;;;;;3.67;3.33;;;;;;;;5048719;28;45440;-73
2022/09/13 04:47:26;;;;;;;;;5.00;5.00;;;;;;;;5050686;28;45807;-72
2022/09/13 04:49:52;;;;;;;;;6.00;4.33;;;;;;;;5052023;28;45622;-72
2022/09/13 04:52:17;;;;;;;;;8.67;6.67;;;;;;;;5049404;28;46528;-73
2022/09/13 04:54:42;;;;;;;;;7.67;5.00;;;;;;;;5049675;28;45567;-73
2022/09/13 04:57:08;;;;;;;;;17.00;14.00;;;;;;;;5047486;28;46524;-75
2022/09/13 04:59:33;;;;;;;;;6.67;5.33;;;;;;;;5056137;28;45454;-74
2022/09/13 05:02:01;;;;;;;;;7.00;6.67;;;;;;;;5053790;28;45870;-74
2022/09/13 05:04:26;;;;;;;;;5.00;5.00;;;;;;;;5052969;28;45574;-72
2022/09/13 05:06:51;;;;;;;;;4.67;4.00;;;;;;;;5054796;28;45854;-73
2022/09/13 05:09:17;;;;;;;;;6.25;5.00;;;;;;;;5051881;28;45419;-72
2022/09/13 05:11:42;;;;;;;;;5.00;4.33;;;;;;;;5049666;28;45699;-73
2022/09/13 05:14:09;;;;;;;;;7.00;7.00;;;;;;;;5049352;28;45773;-73
2022/09/13 05:16:34;;;;;;;;;7.00;7.00;;;;;;;;5050608;28;45458;-75
2022/09/13 05:18:59;;;;;;;;;6.33;6.33;;;;;;;;5036057;28;45479;-74
2022/09/13 05:21:27;;;;;;;;;6.00;4.67;;;;;;;;5059567;28;45140;-75
2022/09/13 05:23:53;;;;;;;;;8.67;7.00;;;;;;;;5048892;28;45734;-73
2022/09/13 05:26:19;;;;;;;;;6.67;5.33;;;;;;;;5027869;28;45723;-73
2022/09/13 05:28:44;;;;;;;;;7.67;6.00;;;;;;;;5039076;28;45670;-73
2022/09/13 05:31:13;;;;;;;;;8.33;7.33;;;;;;;;5052472;28;46367;-75
2022/09/13 05:33:39;;;;;;;;;8.00;7.33;;;;;;;;5033660;28;45683;-74
2022/09/13 05:36:05;;;;;;;;;12.00;9.00;;;;;;;;5063975;28;45649;-74
2022/09/13 05:38:30;;;;;;;;;8.67;7.33;;;;;;;;5048569;28;46824;-71
2022/09/13 05:40:56;;;;;;;;;12.67;10.00;;;;;;;;5043152;28;47204;-74
2022/09/13 05:43:25;;;;;;;;;9.33;9.33;;;;;;;;5051684;28;45485;-72
2022/09/13 05:45:50;;;;;;;;;10.67;9.67;;;;;;;;5050192;28;45428;-71
2022/09/13 05:48:15;;;;;;;;;8.00;7.33;;;;;;;;5032413;28;46580;-70
2022/09/13 05:50:41;;;;;;;;;8.33;6.67;;;;;;;;5051914;28;45405;-70
2022/09/13 05:53:06;;;;;;;;;7.67;7.33;;;;;;;;5048411;28;45303;-73
2022/09/13 05:55:32;;;;;;;;;8.33;8.33;;;;;;;;5049550;28;45622;-72
2022/09/13 05:57:58;;;;;;;;;8.50;6.00;;;;;;;;5046600;28;45342;-71
2022/09/13 06:00:23;;;;;;;;;11.67;6.33;;;;;;;;5047362;28;46121;-72
2022/09/13 06:02:49;;;;;;;;;8.00;5.00;;;;;;;;5046867;28;45407;-70
2022/09/13 06:05:14;;;;;;;;;8.00;7.33;;;;;;;;5054191;28;45587;-73
2022/09/13 06:07:40;;;;;;;;;9.67;6.00;;;;;;;;5044784;28;45676;-72
2022/09/13 06:10:06;;;;;;;;;11.33;7.00;;;;;;;;5030710;28;46596;-73
2022/09/13 06:12:31;;;;;;;;;8.67;6.67;;;;;;;;5032377;28;45875;-71
2022/09/13 06:14:57;;;;;;;;;13.00;8.00;;;;;;;;5041112;28;45363;-72
2022/09/13 06:17:22;;;;;;;;;9.00;9.00;;;;;;;;5035598;28;45696;-71
2022/09/13 06:19:47;;;;;;;;;9.33;7.33;;;;;;;;5047010;28;45941;-72
2022/09/13 06:22:12;;;;;;;;;10.67;7.67;;;;;;;;5042474;28;45760;-72
2022/09/13 06:24:38;;;;;;;;;12.33;9.00;;;;;;;;5030564;28;46012;-70
2022/09/13 06:27:03;;;;;;;;;15.00;13.33;;;;;;;;5042858;28;46028;-72
2022/09/13 06:29:28;;;;;;;;;10.00;7.33;;;;;;;;5043452;28;45446;-72
2022/09/13 06:31:54;;;;;;;;;9.00;8.00;;;;;;;;5042728;28;45683;-70
2022/09/13 06:34:19;;;;;;;;;14.33;12.00;;;;;;;;5042437;28;45460;-72
2022/09/13 06:36:44;;;;;;;;;15.33;12.00;;;;;;;;5042596;28;46491;-72
2022/09/13 06:39:10;;;;;;;;;11.67;11.00;;;;;;;;5046375;28;46884;-72
2022/09/13 06:41:36;;;;;;;;;9.67;8.33;;;;;;;;5024365;28;45754;-73
2022/09/13 06:44:01;;;;;;;;;12.33;8.33;;;;;;;;5045511;28;45504;-71
2022/09/13 06:46:28;;;;;;;;;17.33;11.00;;;;;;;;5029946;28;46175;-72
2022/09/13 06:48:53;;;;;;;;;13.00;9.33;;;;;;;;5052430;28;45920;-70
2022/09/13 06:51:20;;;;;;;;;10.33;9.33;;;;;;;;5041664;28;45650;-72
2022/09/13 06:53:47;;;;;;;;;8.00;8.00;;;;;;;;5059526;28;45802;-70
2022/09/13 06:56:17;;;;;;;;;8.67;6.00;;;;;;;;5050895;28;45361;-71
2022/09/13 06:58:44;;;;;;;;;4.33;4.33;;;;;;;;5051011;28;46617;-73
2022/09/13 07:01:13;;;;;;;;;5.25;5.25;;;;;;;;5053567;28;46270;-71
2022/09/13 07:03:39;;;;;;;;;4.50;4.50;;;;;;;;5050664;28;45686;-73
2022/09/13 07:06:08;;;;;;;;;3.00;3.00;;;;;;;;5060937;28;45852;-71
2022/09/13 07:08:33;;;;;;;;;5.75;5.75;;;;;;;;5052353;28;47199;-72
2022/09/13 07:10:59;;;;;;;;;5.00;5.00;;;;;;;;5049078;28;45739;-70
2022/09/13 07:13:24;;;;;;;;;4.33;3.33;;;;;;;;5050488;28;45702;-71
2022/09/13 07:15:50;;;;;;;;;6.33;5.00;;;;;;;;5045889;28;45677;-72
2022/09/13 07:18:15;;;;;;;;;7.33;4.67;;;;;;;;5041684;28;47325;-72
2022/09/13 07:20:40;;;;;;;;;7.00;6.33;;;;;;;;5036353;28;45413;-72
2022/09/13 07:23:05;;;;;;;;;3.33;3.33;;;;;;;;5046255;28;45693;-72
2022/09/13 07:25:30;;;;;;;;;9.50;7.25;;;;;;;;5047162;28;45804;-71
2022/09/13 07:27:56;;;;;;;;;4.33;4.33;;;;;;;;5058180;28;45270;-71
2022/09/13 07:30:21;;;;;;;;;5.67;5.00;;;;;;;;5044205;28;45728;-72
2022/09/13 07:32:46;;;;;;;;;7.33;5.67;;;;;;;;5047912;28;45599;-71
2022/09/13 07:35:12;;;;;;;;;9.50;6.00;;;;;;;;5062503;28;46040;-72
2022/09/13 07:37:37;;;;;;;;;5.00;5.00;;;;;;;;5048720;28;45905;-72
2022/09/13 07:40:02;;;;;;;;;7.33;4.00;;;;;;;;5052830;28;45394;-73
2022/09/13 07:42:27;;;;;;;;;5.00;5.00;;;;;;;;5052432;28;45642;-72
2022/09/13 07:44:53;;;;;;;;;5.00;5.00;;;;;;;;5047917;28;45627;-72
2022/09/13 07:47:19;;;;;;;;;4.33;4.33;;;;;;;;5051833;28;45844;-72
2022/09/13 07:49:45;;;;;;;;;4.00;4.00;;;;;;;;5050502;28;45770;-74
2022/09/13 07:52:10;;;;;;;;;5.00;5.00;;;;;;;;5047870;28;45599;-73
2022/09/13 07:54:37;;;;;;;;;0.75;0.50;;;;;;;;5052939;28;45592;-74
2022/09/13 07:57:02;;;;;;;;;6.33;4.33;;;;;;;;5048250;28;47308;-72
2022/09/13 07:59:27;;;;;;;;;4.67;4.67;;;;;;;;5044440;28;45875;-72
2022/09/13 08:01:52;;;;;;;;;6.33;4.00;;;;;;;;5052448;28;45728;-72
2022/09/13 08:04:19;;;;;;;;;2.25;2.25;;;;;;;;5046431;28;45739;-74
2022/09/13 08:06:45;;;;;;;;;6.33;4.67;;;;;;;;5045001;28;46693;-73
2022/09/13 08:09:11;;;;;;;;;3.50;3.50;;;;;;;;5027055;28;45498;-73
2022/09/13 08:11:36;;;;;;;;;1.75;1.75;;;;;;;;5040703;28;45433;-73
2022/09/13 08:14:02;;;;;;;;;8.33;5.33;;;;;;;;5034291;28;45745;-72
2022/09/13 08:16:28;;;;;;;;;8.33;5.00;;;;;;;;5039472;28;45634;-73
2022/09/13 08:18:55;;;;;;;;;6.33;6.33;;;;;;;;5048302;28;45654;-73
2022/09/13 08:21:21;;;;;;;;;5.75;5.75;;;;;;;;5046054;28;45555;-72
2022/09/13 08:23:46;;;;;;;;;7.75;5.25;;;;;;;;5034842;28;45532;-72
2022/09/13 08:26:12;;;;;;;;;2.50;2.50;;;;;;;;5050865;28;45820;-75
2022/09/13 08:28:41;;;;;;;;;4.00;4.00;;;;;;;;5051241;28;45778;-73
2022/09/13 08:31:08;;;;;;;;;9.00;7.33;;;;;;;;5032881;28;45410;-72
2022/09/13 08:33:34;;;;;;;;;8.00;5.67;;;;;;;;5048202;28;46662;-72
2022/09/13 08:36:00;;;;;;;;;7.33;7.00;;;;;;;;5058505;28;46166;-73
2022/09/13 08:38:26;;;;;;;;;7.50;7.50;;;;;;;;5042989;28;45767;-71
2022/09/13 08:40:53;;;;;;;;;7.50;6.50;;;;;;;;5038186;28;45864;-73
2022/09/13 08:43:40;;;;;;;;;8.00;8.00;;;;;;;;5051341;28;45612;-74
2022/09/13 08:46:10;;;;;;;;;9.33;6.33;;;;;;;;5045908;28;46274;-72
2022/09/13 08:48:38;;;;;;;;;7.25;7.25;;;;;;;;5051147;28;45445;-72
2022/09/13 08:51:10;;;;;;;;;7.00;6.75;;;;;;;;5050747;28;45906;-72
2022/09/13 08:53:44;;;;;;;;;5.50;5.50;;;;;;;;5060544;28;45495;-75
2022/09/13 08:56:09;;;;;;;;;6.75;4.00;;;;;;;;5051763;28;46626;-72
2022/09/13 08:58:43;;;;;;;;;6.50;5.50;;;;;;;;5050301;28;45904;-73
2022/09/13 09:01:26;;;;;;;;;7.00;5.00;;;;;;;;5047692;28;45664;-72
2022/09/13 09:04:10;;;;;;;;;3.75;3.75;;;;;;;;5043647;28;47163;-72
2022/09/13 09:06:36;;;;;;;;;4.50;4.50;;;;;;;;5049378;28;45918;-79
2022/09/13 09:09:04;;;;;;;;;6.75;4.50;;;;;;;;5050126;28;45696;-73
2022/09/13 09:11:48;;;;;;;;;8.25;6.00;;;;;;;;5048314;28;45655;-71
2022/09/13 09:14:16;;;;;;;;;10.25;9.75;;;;;;;;5042170;28;45524;-72
2022/09/13 09:16:52;;;;;;;;;4.50;4.50;;;;;;;;5038840;28;45669;-73
2022/09/13 09:19:18;;;;;;;;;4.25;3.00;;;;;;;;5032631;28;45764;-74
2022/09/13 09:21:45;;;;;;;;;5.25;4.00;;;;;;;;5051613;28;45279;-73
2022/09/13 09:24:16;;;;;;;;;4.00;4.00;;;;;;;;5050836;28;45520;-73
2022/09/13 09:26:41;;;;;;;;;4.75;4.00;;;;;;;;5050868;28;45790;-72
2022/09/13 09:29:17;;;;;;;;;15.33;13.67;;;;;;;;5051274;28;45743;-73
2022/09/13 09:31:43;;;;;;;;;5.00;5.00;;;;;;;;5023080;28;45672;-74
2022/09/13 09:34:14;;;;;;;;;5.00;5.00;;;;;;;;5049152;28;45646;-76
2022/09/13 09:36:42;;;;;;;;;8.25;4.00;;;;;;;;5051498;28;46348;-75
2022/09/13 09:39:13;;;;;;;;;5.75;4.50;;;;;;;;5051653;28;45441;-74
2022/09/13 09:41:38;;;;;;;;;5.75;4.00;;;;;;;;5030442;28;45483;-73
2022/09/13 09:44:16;;;;;;;;;4.75;4.75;;;;;;;;5052791;28;45319;-73
2022/09/13 09:46:41;;;;;;;;;2.00;2.00;;;;;;;;5051228;28;45812;-73
2022/09/13 09:50:17;;;;;;;;;3.50;3.50;;;;;;;;5035838;28;45793;-71
2022/09/13 09:52:13;;;;;;;;;5.50;3.75;;;;;;;;5035203;28;45667;-73
2022/09/13 09:54:40;;;;;;;;;2.25;2.25;;;;;;;;5048987;28;45423;-75
2022/09/13 09:57:06;;;;;;;;;3.00;3.00;;;;;;;;5041479;28;45746;-73
2022/09/13 09:59:33;;;;;;;;;3.00;3.00;;;;;;;;5055019;28;45351;-73
2022/09/13 10:01:59;;;;;;;;;2.75;2.75;;;;;;;;5052045;28;45719;-76
2022/09/13 10:04:24;;;;;;;;;4.25;4.00;;;;;;;;5055422;28;45441;-77
2022/09/13 10:07:06;;;;;;;;;4.75;4.75;;;;;;;;5036040;28;46600;-74
2022/09/13 10:09:31;;;;;;;;;4.25;3.75;;;;;;;;5053211;28;45854;-76
2022/09/13 10:11:58;;;;;;;;;5.50;5.00;;;;;;;;5051301;28;45735;-77
2022/09/13 10:14:43;;;;;;;;;2.25;2.25;;;;;;;;5050590;28;45777;-75
2022/09/13 10:17:18;;;;;;;;;3.75;2.25;;;;;;;;5053593;28;45867;-74
2022/09/13 10:19:51;;;;;;;;;2.00;2.00;;;;;;;;5050871;28;45661;-76
2022/09/13 10:22:17;;;;;;;;;4.25;4.00;;;;;;;;5054738;28;45378;-74
2022/09/13 10:24:43;;;;;;;;;2.75;2.50;;;;;;;;5040970;28;45484;-76
2022/09/13 10:27:23;;;;;;;;;3.00;3.00;;;;;;;;5048298;28;46156;-75
2022/09/13 10:29:50;;;;;;;;;5.75;4.00;;;;;;;;5050445;28;45688;-74
2022/09/13 10:32:18;;;;;;;;;3.75;3.50;;;;;;;;5054150;28;45473;-75
2022/09/13 10:34:45;;;;;;;;;3.25;3.25;;;;;;;;5045607;28;46102;-72
2022/09/13 10:37:18;;;;;;;;;4.50;4.50;;;;;;;;5026042;28;47169;-72
2022/09/13 10:39:55;;;;;;;;;4.75;4.75;;;;;;;;5049461;28;45811;-74
2022/09/13 10:42:23;;;;;;;;;3.00;3.00;;;;;;;;5039706;28;45440;-72
2022/09/13 10:44:51;;;;;;;;;5.00;4.00;;;;;;;;5043231;28;45468;-72
2022/09/13 10:47:22;;;;;;;;;5.75;5.75;;;;;;;;5040795;28;46063;-71
2022/09/13 10:49:51;;;;;;;;;8.00;4.50;;;;;;;;5044097;28;45559;-73
2022/09/13 10:52:26;;;;;;;;;6.75;5.25;;;;;;;;5047771;28;45646;-74
2022/09/13 10:54:52;;;;;;;;;5.75;4.25;;;;;;;;5031754;28;45877;-74
2022/09/13 10:57:46;;;;;;;;;6.75;5.25;;;;;;;;5049204;28;45894;-72
2022/09/13 11:00:15;;;;;;;;;8.00;6.25;;;;;;;;5029494;28;45916;-72
2022/09/13 11:02:49;;;;;;;;;6.75;6.75;;;;;;;;5047686;28;45768;-72
2022/09/13 11:05:18;;;;;;;;;4.25;4.25;;;;;;;;5048133;28;45552;-75
2022/09/13 11:07:55;;;;;;;;;5.00;5.00;;;;;;;;5046675;28;45741;-73
2022/09/13 11:10:44;;;;;;;;;7.25;5.75;;;;;;;;5044092;28;45361;-73
2022/09/13 11:13:13;;;;;;;;;8.25;5.50;;;;;;;;5045529;28;45678;-73
2022/09/13 11:15:38;;;;;;;;;6.00;5.50;;;;;;;;5051287;28;45520;-74
2022/09/13 11:18:06;;;;;;;;;5.25;5.25;;;;;;;;5045334;28;46166;-73
2022/09/13 11:20:34;;;;;;;;;5.75;5.00;;;;;;;;5028077;28;46295;-72
2022/09/13 11:23:01;;;;;;;;;5.75;5.00;;;;;;;;5048760;28;45880;-76
2022/09/13 11:25:26;;;;;;;;;5.00;5.00;;;;;;;;5065740;22;45756;-82
2022/09/13 11:27:51;;;;;;;;;4.50;3.50;;;;;;;;5043244;28;47012;-83
2022/09/13 11:30:21;;;;;;;;;3.25;3.00;;;;;;;;5040308;28;45433;-84
2022/09/13 11:33:05;;;;;;;;;3.50;2.25;;;;;;;;5044076;28;45550;-84
2022/09/13 11:35:45;;;;;;;;;6.75;4.00;;;;;;;;5049675;28;45530;-83
2022/09/13 11:38:16;;;;;;;;;4.75;3.00;;;;;;;;5036390;28;46786;-85
2022/09/13 11:41:00;;;;;;;;;2.00;2.00;;;;;;;;5039108;28;45531;-85
2022/09/13 11:43:43;;;;;;;;;4.00;4.00;;;;;;;;5024888;28;45494;-82
2022/09/13 11:46:14;;;;;;;;;4.00;3.00;;;;;;;;5015799;28;45915;-84
2022/09/13 11:48:58;;;;;;;;;3.75;3.00;;;;;;;;5042142;28;46384;-83
2022/09/13 11:51:26;;;;;;;;;5.50;4.75;;;;;;;;5036076;28;45672;-82
2022/09/13 11:54:06;;;;;;;;;3.75;3.00;;;;;;;;5038392;28;45626;-84
2022/09/13 11:56:37;;;;;;;;;3.00;3.00;;;;;;;;5022787;28;45811;-83
2022/09/13 11:59:12;;;;;;;;;3.50;3.50;;;;;;;;5021541;28;46255;-86
2022/09/13 12:01:42;;;;;;;;;3.25;3.25;;;;;;;;5015654;28;45519;-82
2022/09/13 12:04:15;;;;;;;;;2.75;2.75;;;;;;;;5023707;28;45420;-85
2022/09/13 12:06:42;;;;;;;;;4.00;2.75;;;;;;;;5040340;28;45893;-85
2022/09/13 12:09:25;;;;;;;;;4.00;3.00;;;;;;;;5054300;28;45810;-86
2022/09/13 12:11:53;;;;;;;;;3.25;3.00;;;;;;;;5015420;28;45447;-85
2022/09/13 12:14:26;;;;;;;;;4.00;3.25;;;;;;;;5024674;28;45457;-84
2022/09/13 12:16:53;;;;;;;;;3.75;3.25;;;;;;;;5043123;28;45466;-85
2022/09/13 12:19:22;;;;;;;;;5.00;3.75;;;;;;;;5034868;28;47876;-86
2022/09/13 12:21:48;;;;;;;;;4.50;4.50;;;;;;;;5024833;28;46059;-85
2022/09/13 12:24:24;;;;;;;;;4.50;4.50;;;;;;;;5029759;28;44990;-86
2022/09/13 12:26:58;;;;;;;;;5.00;3.75;;;;;;;;5061752;28;45452;-85
2022/09/13 12:29:58;;;;;;;;;3.25;3.25;;;;;;;;5044635;28;45426;-85
2022/09/13 12:32:24;;;;;;;;;3.50;3.50;;;;;;;;5023414;28;45622;-84
2022/09/13 12:35:06;;;;;;;;;3.75;1.75;;;;;;;;5028596;28;45508;-86
2022/09/13 12:37:51;;;;;;;;;3.50;3.50;;;;;;;;5054802;28;45401;-84
2022/09/13 12:40:33;;;;;;;;;4.25;4.00;;;;;;;;5038574;28;45532;-87
2022/09/13 12:42:59;;;;;;;;;5.00;4.00;;;;;;;;5033594;28;45289;-85
2022/09/13 12:45:50;;;;;;;;;3.75;2.00;;;;;;;;5029887;28;45624;-83
2022/09/13 12:48:40;;;;;;;;;2.00;2.00;;;;;;;;5022788;28;46701;-84
2022/09/13 12:51:05;;;;;;;;;3.25;3.25;;;;;;;;5035469;28;45577;-84
2022/09/13 12:53:37;;;;;;;;;3.75;3.50;;;;;;;;5037252;28;45525;-83
2022/09/13 12:56:09;;;;;;;;;4.00;3.00;;;;;;;;5043264;28;45544;-82
2022/09/13 12:58:57;;;;;;;;;6.00;5.00;;;;;;;;5049916;28;45319;-86
2022/09/13 13:01:25;;;;;;;;;5.25;5.00;;;;;;;;5051275;28;46611;-84
2022/09/13 13:03:56;;;;;;;;;5.25;4.00;;;;;;;;5043417;28;45799;-83
2022/09/13 13:06:32;;;;;;;;;3.00;3.00;;;;;;;;5032998;28;45329;-85
2022/09/13 13:08:59;;;;;;;;;4.00;4.00;;;;;;;;5028085;28;45990;-84
2022/09/13 13:11:30;;;;;;;;;4.75;4.75;;;;;;;;5038698;28;46072;-83
2022/09/13 13:14:08;;;;;;;;;7.50;6.25;;;;;;;;5040122;28;45460;-81
2022/09/13 13:16:39;;;;;;;;;5.00;3.50;;;;;;;;5027715;28;45234;-84
2022/09/13 13:19:24;;;;;;;;;3.25;3.25;;;;;;;;5019236;28;45642;-84
2022/09/13 13:21:50;;;;;;;;;5.75;4.50;;;;;;;;5038118;28;46564;-83
2022/09/13 13:24:19;;;;;;;;;4.25;4.00;;;;;;;;5052717;28;45801;-82
2022/09/13 13:26:49;;;;;;;;;4.00;2.75;;;;;;;;5022765;28;44808;-83
2022/09/13 13:29:18;;;;;;;;;4.00;4.00;;;;;;;;5050907;28;45692;-83
2022/09/13 13:32:03;;;;;;;;;3.50;2.00;;;;;;;;5028331;28;47424;-84
2022/09/13 13:34:30;;;;;;;;;2.00;2.00;;;;;;;;5027036;28;45548;-83
2022/09/13 13:37:18;;;;;;;;;3.00;3.00;;;;;;;;5037735;28;45624;-82
2022/09/13 13:39:44;;;;;;;;;3.00;3.00;;;;;;;;5028880;28;45848;-83
2022/09/13 13:42:25;;;;;;;;;5.00;3.00;;;;;;;;5034430;28;46996;-83
2022/09/13 13:44:53;;;;;;;;;3.25;2.25;;;;;;;;5008803;28;45449;-83
2022/09/13 13:47:19;;;;;;;;;4.00;3.00;;;;;;;;5040619;28;45672;-85
2022/09/13 13:49:49;;;;;;;;;2.00;2.00;;;;;;;;5043567;28;45869;-83
2022/09/13 13:52:17;;;;;;;;;3.50;3.50;;;;;;;;5037827;28;46733;-83
2022/09/13 13:54:52;;;;;;;;;3.00;3.00;;;;;;;;5032420;28;45506;-83
2022/09/13 13:57:31;;;;;;;;;4.00;3.00;;;;;;;;5016551;28;45336;-84
2022/09/13 13:59:56;;;;;;;;;4.00;3.50;;;;;;;;5040176;28;45359;-81
2022/09/13 14:02:29;;;;;;;;;5.00;4.00;;;;;;;;5020312;28;46749;-82
2022/09/13 14:04:58;;;;;;;;;3.25;3.25;;;;;;;;5018842;28;45816;-82
2022/09/13 14:07:31;;;;;;;;;4.25;2.25;;;;;;;;5005711;28;45814;-83
2022/09/13 14:10:13;;;;;;;;;5.50;3.00;;;;;;;;5042434;28;45399;-81
2022/09/13 14:12:53;;;;;;;;;3.50;3.50;;;;;;;;5016973;28;46391;-82
2022/09/13 14:15:37;;;;;;;;;4.25;3.00;;;;;;;;5019572;28;45554;-82
2022/09/13 14:18:22;;;;;;;;;3.00;3.00;;;;;;;;5039440;28;45406;-83
2022/09/13 14:21:04;;;;;;;;;5.00;3.25;;;;;;;;5028607;28;45568;-83
2022/09/13 14:23:30;;;;;;;;;2.00;2.00;;;;;;;;5022819;28;45424;-83
2022/09/13 14:25:56;;;;;;;;;4.25;4.00;;;;;;;;5037135;28;45486;-83
2022/09/13 14:28:25;;;;;;;;;4.00;4.00;;;;;;;;5027097;28;45799;-84
2022/09/13 14:30:52;;;;;;;;;4.00;4.00;;;;;;;;5029786;28;45884;-84
2022/09/13 14:33:22;;;;;;;;;4.50;4.50;;;;;;;;5022543;28;45736;-82
2022/09/13 14:35:55;;;;;;;;;4.25;4.25;;;;;;;;5035355;28;45793;-83
2022/09/13 14:38:29;;;;;;;;;3.00;3.00;;;;;;;;5034692;28;45430;-82
2022/09/13 14:40:57;;;;;;;;;6.25;5.00;;;;;;;;5020718;28;46075;-85
2022/09/13 14:43:59;;;;;;;;;;;;;;;;;;;;;
2022/09/13 14:47:06;;;;;;;;;;;;;;;;;;;;;
2022/09/13 14:49:34;;;;;;;;;3.25;3.25;;;;;;;;4947444;28;68331;-81
2022/09/13 14:52:05;;;;;;;;;4.00;3.00;;;;;;;;4988220;28;45744;-78
2022/09/13 15:20:54;;;;;;;;;4.00;4.00;;;;;;;;4702121;29;45464;-82
2022/09/13 15:23:40;;;;;;;;;5.50;2.50;;;;;;;;4838445;29;45848;-85
2022/09/13 15:26:24;;;;;;;;;5.00;3.50;;;;;;;;4869800;29;45470;-82
2022/09/13 15:29:00;;;;;;;;;3.00;2.00;;;;;;;;4876451;29;46215;-79